Time;durP1;ratioP1;P1;durP2;ratioP2;P2;SDS_P1;SDS_P2;PMS_P1;PMS_P2;Temp;Humidity;BMP_temperature;BMP_pressure;BME280_temperature;BME280_humidity;BME280_pressure;Samples;Min_cycle;Max_cycle;Signal;HPM_P1;HPM_P2
2022/11/20 20:14:58;;;;;;;;;42.75;31.50;;;;;8.00;85.46;100730.72;5065492;28;45415;-67
2022/11/20 20:17:24;;;;;;;;;33.25;30.00;;;;;8.22;84.96;100729.25;5042768;28;45471;-66
2022/11/20 20:19:49;;;;;;;;;12.75;8.75;;;;;8.34;83.56;100724.16;5038732;28;45484;-69
2022/11/20 20:22:15;;;;;;;;;5.00;4.25;;;;;8.56;83.09;100727.91;5044103;28;45495;-70
2022/11/20 20:24:40;;;;;;;;;7.75;4.50;;;;;8.72;82.07;100739.38;5052185;28;46227;-68
2022/11/20 20:27:06;;;;;;;;;7.50;5.50;;;;;8.90;82.14;100733.47;5051623;28;45577;-68
2022/11/20 20:29:31;;;;;;;;;6.75;5.00;;;;;8.95;81.20;100728.28;5040732;28;45517;-69
2022/11/20 20:31:57;;;;;;;;;5.75;5.75;;;;;9.13;80.99;100742.38;5051975;28;45382;-67
2022/11/20 20:34:23;;;;;;;;;5.00;4.00;;;;;9.21;80.32;100745.03;5048729;28;45438;-64
2022/11/20 20:36:48;;;;;;;;;5.00;3.25;;;;;9.30;80.00;100750.34;5047227;28;45579;-65
2022/11/20 20:39:14;;;;;;;;;9.75;4.25;;;;;9.34;79.80;100748.59;5042020;28;45415;-70
2022/11/20 20:41:39;;;;;;;;;3.50;3.50;;;;;9.40;79.24;100739.94;5048952;28;45517;-66
2022/11/20 20:46:53;;;;;;;;;3.25;3.25;;;;;9.35;79.15;100721.63;5040158;28;45520;-65
2022/11/20 20:49:27;;;;;;;;;4.25;4.00;;;;;9.58;78.86;100749.63;5044353;28;45470;-66
2022/11/20 20:51:53;;;;;;;;;4.50;3.25;;;;;9.63;78.52;100745.28;5048850;28;45606;-67
2022/11/20 20:54:19;;;;;;;;;6.50;4.75;;;;;9.65;77.69;100748.81;5049305;28;46614;-68
2022/11/20 20:56:44;;;;;;;;;6.75;5.25;;;;;9.67;78.34;100747.06;5049892;28;46573;-68
2022/11/20 20:59:10;;;;;;;;;6.25;3.50;;;;;9.68;77.69;100747.09;5049762;28;45737;-69
2022/11/20 21:01:35;;;;;;;;;4.25;4.00;;;;;9.58;77.84;100720.88;5042959;28;46660;-69
2022/11/20 21:04:01;;;;;;;;;4.00;3.75;;;;;9.72;77.75;100747.97;5045333;28;45549;-68
2022/11/20 21:06:26;;;;;;;;;7.50;4.00;;;;;9.73;77.67;100754.97;5048644;28;45283;-67
2022/11/20 21:08:54;;;;;;;;;7.00;3.50;;;;;9.65;77.83;100733.09;5045337;28;45840;-70
2022/11/20 21:11:20;;;;;;;;;4.75;4.25;;;;;9.63;77.14;100719.16;5043207;28;45528;-69
2022/11/20 21:13:47;;;;;;;;;4.50;3.50;;;;;9.73;77.81;100752.34;5047147;28;46654;-66
2022/11/20 21:16:15;;;;;;;;;6.00;2.50;;;;;9.73;77.58;100753.22;5046018;28;45452;-71
2022/11/20 21:18:40;;;;;;;;;6.50;3.00;;;;;9.64;77.29;100737.47;5044322;28;45559;-69
2022/11/20 21:23:52;;;;;;;;;5.50;4.00;;;;;9.69;76.90;100740.13;5048872;28;46594;-68
2022/11/20 21:26:19;;;;;;;;;3.75;3.25;;;;;9.91;77.09;100778.59;5033478;28;45465;-65
2022/11/20 21:28:51;;;;;;;;;5.00;4.25;;;;;9.80;77.20;100740.16;5031626;28;45524;-65
2022/11/20 21:31:23;;;;;;;;;3.75;3.00;;;;;10.04;76.50;100779.56;5027981;28;46499;-67
2022/11/20 21:33:51;;;;;;;;;3.00;3.00;;;;;10.09;76.05;100785.69;5028577;28;46052;-67
2022/11/20 21:36:22;;;;;;;;;3.00;2.00;;;;;10.13;76.29;100774.38;5061933;28;45511;-68
2022/11/20 21:38:50;;;;;;;;;7.75;4.50;;;;;10.17;76.28;100783.94;5034312;28;46514;-68
2022/11/20 21:41:16;;;;;;;;;5.25;4.00;;;;;10.18;76.42;100785.72;5031069;28;45639;-67
2022/11/20 21:43:43;;;;;;;;;4.50;3.00;;;;;10.17;76.06;100770.88;5031038;28;45881;-68
2022/11/20 21:46:13;;;;;;;;;2.50;2.00;;;;;10.24;75.71;100782.25;5031140;28;45680;-67
2022/11/20 21:48:40;;;;;;;;;7.25;2.00;;;;;10.21;75.57;100770.91;5032485;28;45563;-66
2022/11/20 21:51:16;;;;;;;;;3.75;2.50;;;;;10.20;75.55;100770.00;5036196;28;45925;-67
2022/11/20 21:53:43;;;;;;;;;6.75;2.50;;;;;10.21;75.62;100758.69;5035341;28;45289;-67
2022/11/20 21:56:10;;;;;;;;;2.50;2.50;;;;;10.31;75.57;100775.31;5030879;28;45565;-69
2022/11/20 21:58:38;;;;;;;;;3.00;3.00;;;;;10.12;75.20;100749.03;5027975;28;45383;-67
2022/11/20 22:01:16;;;;;;;;;9.67;2.00;;;;;10.32;75.30;100780.59;5031495;28;46541;-67
2022/11/20 22:03:46;;;;;;;;;4.50;4.00;;;;;10.28;74.99;100785.75;5031214;28;45639;-68
2022/11/20 22:06:11;;;;;;;;;4.50;2.75;;;;;10.27;74.99;100789.22;5031925;28;46292;-65
2022/11/20 22:08:38;;;;;;;;;3.25;3.25;;;;;10.14;75.22;100770.00;5030203;28;45656;-64
2022/11/20 22:11:06;;;;;;;;;5.00;1.50;;;;;10.12;75.31;100795.28;5033937;28;45843;-65
2022/11/20 22:16:17;;;;;;;;;2.00;2.00;;;;;10.08;75.34;100797.00;5031147;28;45328;-65
2022/11/20 22:18:44;;;;;;;;;5.00;3.00;;;;;10.05;75.55;100791.75;5027337;28;45499;-67
2022/11/20 22:21:12;;;;;;;;;3.00;2.00;;;;;10.08;74.98;100799.59;5031193;28;45441;-65
2022/11/20 22:23:38;;;;;;;;;2.25;2.00;;;;;9.93;75.42;100776.00;5032966;28;46338;-65
2022/11/20 22:26:07;;;;;;;;;3.25;3.00;;;;;9.76;75.60;100745.38;5034006;28;45449;-67
2022/11/20 22:28:34;;;;;;;;;2.50;2.50;;;;;10.07;75.35;100792.63;5028676;28;45627;-68
2022/11/20 22:31:01;;;;;;;;;2.00;2.00;;;;;10.00;75.25;100777.78;5031018;28;45811;-67
2022/11/20 22:33:28;;;;;;;;;4.50;3.00;;;;;9.99;75.55;100783.88;5030283;28;46661;-71
2022/11/20 22:36:17;;;;;;;;;4.50;3.00;;;;;10.04;75.11;100783.91;5028370;28;45388;-69
2022/11/20 22:38:51;;;;;;;;;5.25;3.00;;;;;9.81;75.08;100748.03;5030200;28;45623;-66
2022/11/20 22:41:26;;;;;;;;;3.00;1.00;;;;;10.01;75.20;100782.13;5030290;28;45440;-68
2022/11/20 22:43:59;;;;;;;;;2.50;2.50;;;;;10.02;75.10;100796.13;5026330;28;46681;-66
2022/11/20 22:46:27;;;;;;;;;5.00;1.00;;;;;10.00;75.17;100796.09;5033380;28;45553;-66
2022/11/20 22:48:55;;;;;;;;;2.25;1.00;;;;;10.00;75.17;100798.72;5030310;28;45451;-69
2022/11/20 22:51:34;;;;;;;;;2.00;2.00;;;;;9.94;75.27;100789.09;5002484;28;46077;-64
2022/11/20 22:54:09;;;;;;;;;4.50;1.50;;;;;9.81;74.56;100749.78;5030690;28;46168;-66
2022/11/20 22:56:35;;;;;;;;;3.75;3.00;;;;;9.92;74.64;100769.03;5033788;28;45430;-64
2022/11/20 22:59:01;;;;;;;;;3.50;1.75;;;;;10.02;74.89;100786.50;5032409;28;45486;-64
2022/11/20 23:01:29;;;;;;;;;4.50;3.00;;;;;10.05;74.68;100783.03;5012466;28;46442;-64
2022/11/20 23:04:06;;;;;;;;;4.75;2.25;;;;;10.05;74.80;100780.41;5031243;28;45561;-67
2022/11/20 23:06:35;;;;;;;;;5.00;1.00;;;;;9.98;74.86;100783.00;5027359;28;45419;-67
2022/11/20 23:09:02;;;;;;;;;2.75;1.75;;;;;9.97;74.78;100772.53;5025850;28;45532;-67
2022/11/20 23:11:29;;;;;;;;;2.50;2.00;;;;;9.95;74.66;100764.66;5029546;28;45422;-66
2022/11/20 23:14:01;;;;;;;;;5.75;3.00;;;;;9.94;75.02;100767.25;5027417;28;46564;-68
2022/11/20 23:16:28;;;;;;;;;3.25;3.25;;;;;9.93;74.84;100766.41;5028939;28;45618;-68
2022/11/20 23:19:00;;;;;;;;;3.00;2.00;;;;;9.90;74.74;100765.53;5027715;28;46477;-62
2022/11/20 23:21:27;;;;;;;;;5.00;2.00;;;;;9.90;74.53;100761.16;5029756;28;45795;-64
2022/11/20 23:23:55;;;;;;;;;3.25;1.00;;;;;9.90;74.55;100760.28;5026745;28;48101;-67
2022/11/20 23:26:25;;;;;;;;;3.00;2.00;;;;;9.81;74.78;100750.66;5028736;28;47059;-66
2022/11/20 23:28:53;;;;;;;;;4.00;2.00;;;;;9.85;74.59;100760.25;5030963;28;46294;-63
2022/11/20 23:31:19;;;;;;;;;3.00;3.00;;;;;9.76;74.79;100747.13;5028685;28;45800;-66
2022/11/20 23:33:45;;;;;;;;;2.75;1.00;;;;;9.69;75.03;100737.50;5031397;28;45383;-64
2022/11/20 23:36:11;;;;;;;;;3.00;1.75;;;;;9.78;74.65;100755.88;5029189;28;45548;-66
2022/11/20 23:38:37;;;;;;;;;5.25;3.00;;;;;9.75;74.79;100748.88;5028773;28;45567;-64
2022/11/20 23:41:03;;;;;;;;;3.00;1.50;;;;;9.81;75.11;100755.88;5029708;28;45507;-65
2022/11/20 23:43:29;;;;;;;;;4.00;2.00;;;;;9.81;74.94;100755.00;5029474;28;46138;-64
2022/11/20 23:45:57;;;;;;;;;5.00;2.00;;;;;9.67;74.40;100742.72;5032832;28;45772;-65
2022/11/20 23:48:25;;;;;;;;;3.75;3.00;;;;;9.78;74.91;100761.09;5032760;28;45556;-68
2022/11/20 23:50:51;;;;;;;;;4.25;2.00;;;;;9.78;74.90;100763.72;5032942;28;45338;-65
2022/11/20 23:53:18;;;;;;;;;3.75;1.00;;;;;9.77;74.87;100759.34;5033116;28;45984;-63
2022/11/20 23:55:49;;;;;;;;;3.00;2.00;;;;;9.47;74.61;100705.13;5031495;28;45409;-64
2022/11/20 23:58:15;;;;;;;;;4.25;2.50;;;;;9.75;74.65;100751.50;5026885;28;45515;-63
